createdAt,value
2017-12-01T00:09:41.441Z,97308.98
2017-12-01T00:30:18.938Z,97315.77
2017-12-01T00:50:50.760Z,97330.77
2017-12-01T01:11:24.183Z,97335.42
2017-12-01T01:31:56.660Z,97351.90
2017-12-01T01:52:30.426Z,97373.68
2017-12-01T02:13:05.697Z,97388.89
2017-12-01T02:33:40.046Z,97402.16
2017-12-01T02:54:18.084Z,97412.30
2017-12-01T03:14:49.362Z,97432.33
2017-12-01T03:35:22.486Z,97440.71
2017-12-01T03:55:55.913Z,97463.86
2017-12-01T04:16:29.955Z,97468.25
2017-12-01T04:37:04.299Z,97486.20
2017-12-01T04:57:41.736Z,97503.86
2017-12-01T05:18:16.686Z,97524.47
2017-12-01T05:38:53.802Z,97559.59
2017-12-01T05:59:27.232Z,97597.12
2017-12-01T06:20:03.680Z,97620.23
2017-12-01T06:40:36.548Z,97641.85
2017-12-01T07:01:11.819Z,97669.07
2017-12-01T07:21:48.547Z,97712.10
2017-12-01T07:42:25.619Z,97748.62
2017-12-01T08:03:02.240Z,97768.68
2017-12-01T08:23:54.254Z,97802.92
2017-12-01T08:44:24.150Z,97827.45
2017-12-01T09:05:00.343Z,97872.16
2017-12-01T09:25:37.457Z,97900.55
2017-12-01T09:46:09.303Z,97936.42
2017-12-01T10:06:43.333Z,97949.17
2017-12-01T10:27:17.552Z,97965.97
2017-12-01T10:47:51.477Z,97979.63
2017-12-01T11:08:29.818Z,97993.90
2017-12-01T11:29:06.938Z,98007.66
2017-12-01T11:49:42.204Z,98025.27
2017-12-01T12:10:16.555Z,98051.41
2017-12-01T12:30:52.748Z,98047.91
2017-12-01T12:51:25.869Z,98068.86
2017-12-01T13:12:00.219Z,98080.49
2017-12-01T13:32:37.664Z,98086.73
2017-12-01T13:53:11.682Z,98102.72
2017-12-01T14:13:46.302Z,98130.75
2017-12-01T14:34:20.074Z,98153.22
2017-12-01T14:54:56.268Z,98180.70
2017-12-01T15:15:34.611Z,98227.30
2017-12-01T15:36:11.724Z,98259.75
2017-12-01T15:56:50.685Z,98298.33
2017-12-01T16:17:24.417Z,98312.60
2017-12-01T16:37:58.471Z,98322.81
2017-12-01T16:58:31.995Z,98359.28
2017-12-01T17:19:05.010Z,98391.79
2017-12-01T17:39:41.202Z,98413.93
2017-12-01T18:00:17.681Z,98425.70
2017-12-01T18:20:53.594Z,98450.92
2017-12-01T18:41:26.709Z,98471.23
2017-12-01T19:02:00.138Z,98484.92
2017-12-01T19:22:35.603Z,98493.88
2017-12-01T19:43:10.799Z,98512.05
2017-12-01T20:03:47.799Z,98534.60
2017-12-01T20:24:23.280Z,98553.22
2017-12-01T20:44:59.269Z,98581.17
2017-12-01T21:05:33.740Z,98595.25
2017-12-01T21:26:06.095Z,98622.11
2017-12-01T21:46:44.185Z,98644.13
2017-12-01T22:07:18.422Z,98650.81
2017-12-01T22:27:54.093Z,98679.23
2017-12-01T22:48:30.903Z,98696.69
2017-12-01T23:09:09.212Z,98711.16
2017-12-01T23:29:46.349Z,98717.75
2017-12-01T23:50:22.239Z,98740.81
